Time;durP1;ratioP1;P1;durP2;ratioP2;P2;SDS_P1;SDS_P2;PMS_P1;PMS_P2;Temp;Humidity;BMP_temperature;BMP_pressure;BME280_temperature;BME280_humidity;BME280_pressure;Samples;Min_cycle;Max_cycle;Signal;HPM_P1;HPM_P2
2021/12/26 00:00:59;;;;;;;2.92;1.45;;;-3.00;86.10;;;;;;5089783;28;20576;-84
2021/12/26 00:03:27;;;;;;;3.42;1.10;;;-3.00;86.30;;;;;;5089159;28;20482;-84
2021/12/26 00:05:55;;;;;;;9.30;4.25;;;-3.00;86.30;;;;;;5106886;27;20047;-84
2021/12/26 00:08:21;;;;;;;3.92;1.75;;;-2.80;85.40;;;;;;5074295;28;20028;-84
2021/12/26 00:10:48;;;;;;;2.53;1.30;;;-3.00;85.50;;;;;;5091681;28;20043;-84
2021/12/26 00:13:18;;;;;;;4.53;1.50;;;-3.00;85.50;;;;;;5104079;27;20059;-84
2021/12/26 00:15:44;;;;;;;2.95;1.10;;;-3.00;86.10;;;;;;5089795;28;20044;-84
2021/12/26 00:18:10;;;;;;;3.83;1.58;;;-3.00;86.00;;;;;;5085566;28;20043;-84
2021/12/26 00:20:37;;;;;;;3.85;1.33;;;-3.10;86.40;;;;;;5090399;28;20060;-84
2021/12/26 00:23:05;;;;;;;3.40;1.20;;;-3.10;86.70;;;;;;5105007;28;20569;-84
2021/12/26 00:25:32;;;;;;;4.85;1.67;;;-3.10;86.00;;;;;;5104860;27;20083;-84
2021/12/26 00:27:58;;;;;;;5.43;1.50;;;-3.00;86.60;;;;;;5068565;28;20114;-84
2021/12/26 00:30:24;;;;;;;4.30;1.40;;;-3.20;86.60;;;;;;5071230;28;20505;-84
2021/12/26 00:32:50;;;;;;;4.55;1.60;;;-3.20;86.50;;;;;;5070752;28;20367;-84
2021/12/26 00:35:18;;;;;;;4.20;1.42;;;-3.20;86.90;;;;;;5071033;28;20035;-84
2021/12/26 00:37:45;;;;;;;3.45;1.80;;;-3.10;86.60;;;;;;5088357;28;20046;-84
2021/12/26 00:40:12;;;;;;;5.43;1.33;;;-3.20;86.50;;;;;;5088066;28;20261;-84
2021/12/26 00:42:38;;;;;;;2.95;1.40;;;-3.20;86.50;;;;;;5068988;28;20036;-84
2021/12/26 00:45:05;;;;;;;3.25;1.10;;;-3.20;86.30;;;;;;5071984;28;20440;-84
2021/12/26 00:47:32;;;;;;;3.95;1.40;;;-3.20;86.10;;;;;;5086625;28;20032;-84
2021/12/26 00:49:58;;;;;;;3.65;1.30;;;-3.20;85.50;;;;;;5089637;28;20046;-84
2021/12/26 00:52:25;;;;;;;2.65;1.13;;;-3.20;85.90;;;;;;5087781;28;20169;-84
2021/12/26 00:54:50;;;;;;;2.70;1.35;;;-3.20;85.20;;;;;;5073468;28;20059;-84
2021/12/26 00:57:16;;;;;;;2.85;1.10;;;-3.30;84.60;;;;;;5087853;28;20067;-84
2021/12/26 00:59:42;;;;;;;1.77;1.20;;;-3.30;85.40;;;;;;5089104;28;20039;-84
2021/12/26 01:02:07;;;;;;;3.53;1.27;;;-3.20;85.40;;;;;;5073906;28;20039;-84
2021/12/26 01:04:33;;;;;;;3.90;1.50;;;-3.20;84.70;;;;;;5092429;28;20647;-84
2021/12/26 01:06:59;;;;;;;2.63;1.27;;;-3.30;84.80;;;;;;5087670;28;20028;-84
2021/12/26 01:09:28;;;;;;;2.65;1.30;;;-3.20;84.80;;;;;;5089894;28;20093;-83
2021/12/26 01:11:59;;;;;;;2.58;1.23;;;-3.20;84.50;;;;;;5087296;28;20123;-84
2021/12/26 01:14:28;;;;;;;3.78;1.40;;;-3.20;84.10;;;;;;5088373;28;20048;-84
2021/12/26 01:17:13;;;;;;;4.30;1.30;;;-3.30;83.40;;;;;;5069469;28;20163;-84
2021/12/26 01:19:44;;;;;;;4.50;1.40;;;-3.30;84.30;;;;;;5107598;27;20054;-83
2021/12/26 01:22:12;;;;;;;6.20;1.52;;;-3.30;84.10;;;;;;5071059;28;20083;-83
2021/12/26 01:24:38;;;;;;;3.97;1.50;;;-3.30;84.30;;;;;;5070969;28;20482;-83
2021/12/26 01:27:04;;;;;;;3.20;1.42;;;-3.30;84.10;;;;;;5069912;28;20039;-83
2021/12/26 01:29:30;;;;;;;2.75;1.80;;;-3.30;83.80;;;;;;5087106;28;20032;-83
2021/12/26 01:31:56;;;;;;;1.88;1.08;;;-3.30;83.30;;;;;;5103340;27;20452;-83
2021/12/26 01:34:22;;;;;;;2.95;1.35;;;-3.30;82.90;;;;;;5105117;27;20039;-83
2021/12/26 01:36:48;;;;;;;2.78;1.25;;;-3.40;82.70;;;;;;5085795;28;20036;-83
2021/12/26 01:39:14;;;;;;;5.13;1.50;;;-3.30;83.20;;;;;;5086125;28;20032;-83
2021/12/26 01:41:42;;;;;;;3.72;1.27;;;-3.40;82.40;;;;;;5086487;28;20059;-83
2021/12/26 01:44:11;;;;;;;2.83;1.25;;;-3.30;81.90;;;;;;5084462;28;20081;-83
2021/12/26 01:46:39;;;;;;;3.85;1.10;;;-3.30;81.40;;;;;;5086397;28;20474;-83
2021/12/26 01:49:07;;;;;;;3.47;1.20;;;-3.30;81.20;;;;;;5070030;28;20036;-83
2021/12/26 01:51:33;;;;;;;3.67;1.10;;;-3.30;81.10;;;;;;5083971;28;20050;-83
2021/12/26 01:54:04;;;;;;;3.85;1.30;;;-3.40;80.50;;;;;;5069176;28;20043;-83
2021/12/26 01:56:30;;;;;;;2.60;1.30;;;-3.30;81.40;;;;;;5091749;28;20036;-83
2021/12/26 01:58:57;;;;;;;4.55;1.60;;;-3.40;80.30;;;;;;5070125;28;20378;-84
2021/12/26 02:01:23;;;;;;;4.60;1.30;;;-3.40;80.50;;;;;;5082627;28;20044;-84
2021/12/26 02:03:49;;;;;;;3.47;1.20;;;-3.40;80.40;;;;;;5070100;28;20036;-84
2021/12/26 02:06:17;;;;;;;2.83;1.50;;;-3.40;80.60;;;;;;5087102;28;20036;-84
2021/12/26 02:08:43;;;;;;;5.22;1.60;;;-3.40;80.10;;;;;;5069530;28;20569;-84
2021/12/26 02:11:08;;;;;;;3.38;1.60;;;-3.40;80.30;;;;;;5069903;28;20035;-83
2021/12/26 02:13:37;;;;;;;3.00;1.15;;;-3.40;80.20;;;;;;5069845;28;20401;-84
2021/12/26 02:16:07;;;;;;;2.90;1.40;;;-3.40;80.00;;;;;;5067156;28;20081;-84
2021/12/26 02:18:33;;;;;;;3.72;1.50;;;-3.40;80.30;;;;;;5068261;28;20615;-84
2021/12/26 02:28:48;;;;;;;4.18;1.20;;;-3.50;79.90;;;;;;5086574;28;20044;-83
2021/12/26 02:31:16;;;;;;;6.55;1.40;;;-3.50;79.50;;;;;;5069402;28;20482;-83
2021/12/26 02:33:42;;;;;;;3.40;1.45;;;-3.60;79.50;;;;;;5089636;28;20040;-83
2021/12/26 02:36:08;;;;;;;4.03;1.60;;;-3.60;79.70;;;;;;5084297;28;20036;-83
2021/12/26 02:38:35;;;;;;;2.33;1.42;;;-3.60;79.80;;;;;;5069221;28;20382;-84
2021/12/26 02:41:02;;;;;;;3.33;1.40;;;-3.60;79.90;;;;;;5087986;28;20036;-83
2021/12/26 02:43:29;;;;;;;2.53;1.33;;;-3.60;79.90;;;;;;5086580;28;20592;-83
2021/12/26 02:45:55;;;;;;;2.28;1.45;;;-3.60;79.50;;;;;;5069142;28;20044;-83
2021/12/26 02:48:21;;;;;;;3.17;1.35;;;-3.60;79.50;;;;;;5088836;28;20032;-84
2021/12/26 02:50:52;;;;;;;4.00;1.48;;;-3.60;79.50;;;;;;5071211;28;20089;-83
2021/12/26 02:53:20;;;;;;;4.90;1.38;;;-3.60;79.20;;;;;;5086522;28;20032;-84
2021/12/26 02:55:54;;;;;;;3.70;1.40;;;-3.60;79.20;;;;;;5105561;27;20040;-83
2021/12/26 02:58:21;;;;;;;3.80;1.63;;;-3.60;78.90;;;;;;5072463;28;20079;-84
2021/12/26 03:00:55;;;;;;;2.55;1.35;;;-3.60;79.10;;;;;;5072758;28;20068;-83
2021/12/26 03:03:20;;;;;;;4.22;1.63;;;-3.60;79.00;;;;;;5076897;28;20027;-84
2021/12/26 03:05:55;;;;;;;3.85;1.80;;;-3.60;79.20;;;;;;5107243;27;20602;-83
2021/12/26 03:08:21;;;;;;;3.55;1.55;;;-3.50;79.40;;;;;;5088875;28;20068;-83
2021/12/26 03:10:46;;;;;;;2.95;1.55;;;-3.60;78.50;;;;;;5075444;28;20539;-84
2021/12/26 03:13:13;;;;;;;2.60;1.20;;;-3.60;78.40;;;;;;5089405;28;20085;-84
2021/12/26 03:15:40;;;;;;;2.50;1.33;;;-3.60;77.80;;;;;;5074218;28;20036;-84
2021/12/26 03:18:08;;;;;;;3.03;1.40;;;-3.70;78.40;;;;;;5106085;28;20122;-84
2021/12/26 03:20:38;;;;;;;3.70;1.60;;;-3.60;79.00;;;;;;5074417;28;20050;-84
2021/12/26 03:23:06;;;;;;;5.40;1.90;;;-3.60;78.70;;;;;;5088264;28;20539;-84
2021/12/26 03:25:32;;;;;;;3.10;1.58;;;-3.60;78.30;;;;;;5086429;28;20033;-84
2021/12/26 03:27:59;;;;;;;4.70;1.40;;;-3.60;78.00;;;;;;5073094;28;20100;-84
2021/12/26 03:30:27;;;;;;;3.20;1.27;;;-3.70;78.20;;;;;;5090401;28;20036;-84
2021/12/26 03:32:54;;;;;;;3.00;1.60;;;-3.70;77.80;;;;;;5073337;28;20028;-84
2021/12/26 03:35:21;;;;;;;3.63;1.40;;;-3.60;78.10;;;;;;5074537;28;20057;-84
2021/12/26 03:37:47;;;;;;;3.22;1.42;;;-3.70;77.90;;;;;;5088996;28;20028;-84
2021/12/26 03:40:12;;;;;;;3.08;1.40;;;-3.70;77.90;;;;;;5089514;28;20039;-84
2021/12/26 03:42:39;;;;;;;4.18;1.63;;;-3.70;78.30;;;;;;5072987;28;20089;-84
2021/12/26 03:45:07;;;;;;;3.40;1.27;;;-3.70;78.30;;;;;;5074889;28;20043;-84
2021/12/26 03:47:34;;;;;;;3.15;1.42;;;-3.60;78.30;;;;;;5073071;28;20040;-84
2021/12/26 03:50:00;;;;;;;3.28;1.38;;;-3.60;78.20;;;;;;5075075;28;20032;-84
2021/12/26 03:52:26;;;;;;;2.95;1.30;;;-3.60;78.40;;;;;;5073798;28;20563;-84
2021/12/26 03:54:53;;;;;;;3.03;1.55;;;-3.60;77.90;;;;;;5101296;28;20071;-84
2021/12/26 03:57:19;;;;;;;2.88;1.45;;;-3.70;78.20;;;;;;5072422;28;20497;-84
2021/12/26 03:59:45;;;;;;;3.00;1.52;;;-3.70;77.70;;;;;;5073822;28;20054;-84
2021/12/26 04:02:12;;;;;;;4.53;1.38;;;-3.70;77.90;;;;;;5089117;28;20032;-84
2021/12/26 04:04:37;;;;;;;3.10;1.40;;;-3.70;78.40;;;;;;5072717;28;20485;-84
2021/12/26 04:07:03;;;;;;;3.80;1.17;;;-3.60;78.30;;;;;;5090994;28;20032;-84
2021/12/26 04:09:29;;;;;;;3.53;1.52;;;-3.70;78.10;;;;;;5089381;28;20537;-84
2021/12/26 04:11:55;;;;;;;4.55;1.63;;;-3.70;77.70;;;;;;5090095;28;20051;-84
2021/12/26 04:14:21;;;;;;;3.42;1.48;;;-3.70;78.10;;;;;;5086837;28;20055;-84
2021/12/26 04:16:46;;;;;;;2.80;1.40;;;-3.70;78.30;;;;;;5071494;28;20036;-84
2021/12/26 04:19:12;;;;;;;3.70;1.50;;;-3.70;78.00;;;;;;5092297;28;20067;-84
2021/12/26 04:21:38;;;;;;;2.72;1.25;;;-3.70;78.10;;;;;;5089295;28;20036;-85
2021/12/26 04:24:04;;;;;;;5.80;1.50;;;-3.70;77.90;;;;;;5107398;27;20496;-84
2021/12/26 04:26:31;;;;;;;3.40;1.60;;;-3.70;77.80;;;;;;5071208;28;20486;-84
2021/12/26 04:28:57;;;;;;;5.05;1.40;;;-3.70;77.70;;;;;;5070913;28;20028;-84
2021/12/26 04:31:23;;;;;;;2.83;1.60;;;-3.70;78.10;;;;;;5071878;28;20086;-84
2021/12/26 04:33:49;;;;;;;3.28;1.40;;;-3.70;78.00;;;;;;5071210;28;20381;-84
2021/12/26 04:36:14;;;;;;;4.43;1.80;;;-3.70;77.70;;;;;;5071107;28;20040;-84
2021/12/26 04:38:41;;;;;;;4.18;1.42;;;-3.70;77.80;;;;;;5105659;27;20067;-84
2021/12/26 04:41:07;;;;;;;4.78;1.75;;;-3.70;77.40;;;;;;5086527;28;20097;-84
2021/12/26 04:43:35;;;;;;;3.22;1.75;;;-3.70;77.50;;;;;;5071314;28;20028;-84
2021/12/26 04:46:06;;;;;;;3.08;1.52;;;-3.70;77.60;;;;;;5088446;28;20028;-84
2021/12/26 04:48:38;;;;;;;2.80;1.40;;;-3.70;77.10;;;;;;5102321;28;20078;-85
2021/12/26 04:51:06;;;;;;;2.08;1.25;;;-3.70;77.40;;;;;;5090918;28;20097;-85
2021/12/26 04:53:33;;;;;;;3.42;1.80;;;-3.70;77.30;;;;;;5104635;28;20047;-85
2021/12/26 04:55:59;;;;;;;4.90;1.40;;;-3.70;77.30;;;;;;5084657;28;20488;-85
2021/12/26 04:58:25;;;;;;;5.32;1.90;;;-3.70;77.50;;;;;;5065881;28;20040;-85
2021/12/26 05:00:51;;;;;;;5.18;1.70;;;-3.70;77.80;;;;;;5068713;28;20121;-85
2021/12/26 05:03:16;;;;;;;2.47;1.33;;;-3.70;77.50;;;;;;5084254;28;20043;-85
2021/12/26 05:05:44;;;;;;;3.03;1.75;;;-3.70;77.30;;;;;;5087564;28;20093;-85
2021/12/26 05:08:10;;;;;;;2.40;1.42;;;-3.80;76.20;;;;;;5067265;28;20032;-84
2021/12/26 05:10:39;;;;;;;3.33;1.42;;;-3.90;76.80;;;;;;5070709;28;20032;-84
2021/12/26 05:13:05;;;;;;;4.78;1.70;;;-3.90;77.10;;;;;;5070078;28;20036;-84
2021/12/26 05:15:32;;;;;;;2.85;1.52;;;-3.90;77.10;;;;;;5071977;28;20043;-85
2021/12/26 05:17:58;;;;;;;4.63;1.67;;;-3.90;76.60;;;;;;5073670;28;20047;-85
2021/12/26 05:20:26;;;;;;;3.28;1.40;;;-3.80;76.80;;;;;;5087747;28;20417;-85
2021/12/26 05:22:53;;;;;;;3.30;1.50;;;-3.80;76.30;;;;;;5071900;28;20055;-85
2021/12/26 05:25:20;;;;;;;3.97;1.67;;;-3.90;76.90;;;;;;5086453;28;20044;-85
2021/12/26 05:27:47;;;;;;;2.97;1.60;;;-3.90;76.10;;;;;;5070130;28;20032;-85
2021/12/26 05:30:15;;;;;;;3.72;1.70;;;-3.90;76.60;;;;;;5106786;27;20069;-85
2021/12/26 05:32:42;;;;;;;3.67;1.77;;;-3.90;75.90;;;;;;5070745;28;20145;-85
2021/12/26 05:35:09;;;;;;;3.72;1.60;;;-3.90;76.20;;;;;;5086151;28;20067;-85
2021/12/26 05:37:35;;;;;;;4.05;1.80;;;-3.90;75.90;;;;;;5089106;28;20032;-85
2021/12/26 05:40:03;;;;;;;3.55;1.90;;;-4.00;75.20;;;;;;5086807;28;20077;-85
2021/12/26 05:42:30;;;;;;;5.03;2.33;;;-4.00;75.90;;;;;;5070060;28;20032;-85
2021/12/26 05:44:56;;;;;;;3.90;1.55;;;-4.00;75.90;;;;;;5070359;28;20119;-85
2021/12/26 05:47:21;;;;;;;4.43;1.70;;;-4.00;76.90;;;;;;5086599;28;20193;-85
2021/12/26 05:49:47;;;;;;;3.20;1.70;;;-3.90;76.30;;;;;;5074082;28;20032;-85
2021/12/26 05:52:15;;;;;;;3.47;1.70;;;-3.90;76.20;;;;;;5087179;28;20401;-85
2021/12/26 05:54:41;;;;;;;4.93;1.88;;;-3.90;75.80;;;;;;5068781;28;20040;-85
2021/12/26 05:57:07;;;;;;;3.30;1.50;;;-3.90;75.60;;;;;;5069209;28;20043;-85
2021/12/26 05:59:33;;;;;;;6.15;1.55;;;-3.90;76.00;;;;;;5088253;28;20044;-85
2021/12/26 06:01:59;;;;;;;5.03;2.03;;;-4.00;75.60;;;;;;5088562;28;20055;-85
2021/12/26 06:04:25;;;;;;;4.50;1.70;;;-4.00;75.30;;;;;;5070864;28;20087;-85
2021/12/26 06:06:52;;;;;;;3.40;1.80;;;-4.00;75.90;;;;;;5073474;28;20075;-85
2021/12/26 06:09:17;;;;;;;4.22;2.08;;;-4.00;76.40;;;;;;5101581;28;20027;-85
2021/12/26 06:11:43;;;;;;;6.07;2.13;;;-4.00;76.50;;;;;;5069693;28;20043;-85
2021/12/26 06:14:09;;;;;;;3.53;1.55;;;-3.90;76.70;;;;;;5067451;28;20397;-86
2021/12/26 06:16:34;;;;;;;3.38;1.80;;;-3.90;76.30;;;;;;5106121;27;20044;-85
2021/12/26 06:19:00;;;;;;;4.80;2.00;;;-4.00;76.50;;;;;;5105546;27;20032;-86
2021/12/26 06:21:26;;;;;;;4.93;2.30;;;-4.00;76.70;;;;;;5086794;28;20040;-86
2021/12/26 06:23:52;;;;;;;3.67;2.08;;;-4.00;76.20;;;;;;5071535;28;20048;-86
2021/12/26 06:26:23;;;;;;;6.72;2.13;;;-4.00;76.90;;;;;;5070790;28;20039;-86
2021/12/26 06:28:49;;;;;;;5.55;2.50;;;-4.00;76.90;;;;;;5102511;28;20420;-85
2021/12/26 06:31:15;;;;;;;5.63;2.28;;;-4.00;77.00;;;;;;5072323;28;20114;-85
2021/12/26 06:33:40;;;;;;;4.75;2.10;;;-3.90;76.60;;;;;;5086829;28;20047;-85
2021/12/26 06:36:07;;;;;;;5.53;2.28;;;-4.00;76.80;;;;;;5073060;28;20359;-86
2021/12/26 06:38:34;;;;;;;6.35;2.88;;;-3.90;77.00;;;;;;5070122;28;20047;-86
2021/12/26 06:41:03;;;;;;;6.18;2.28;;;-3.90;77.00;;;;;;5091699;28;20044;-86
2021/12/26 06:43:29;;;;;;;6.72;2.70;;;-3.90;77.10;;;;;;5064365;28;20044;-86
2021/12/26 06:45:55;;;;;;;4.95;2.38;;;-3.90;77.20;;;;;;5088257;28;20046;-86
2021/12/26 06:48:21;;;;;;;4.88;2.45;;;-3.90;77.50;;;;;;5070170;28;20552;-86
2021/12/26 06:50:48;;;;;;;8.13;2.58;;;-3.90;77.00;;;;;;5072962;28;20032;-86
2021/12/26 06:53:14;;;;;;;4.95;2.40;;;-3.90;77.00;;;;;;5086073;28;20038;-86
2021/12/26 06:55:40;;;;;;;6.53;2.53;;;-4.00;76.80;;;;;;5071320;28;20048;-86
2021/12/26 06:58:06;;;;;;;4.28;2.30;;;-4.00;77.00;;;;;;5071395;28;20079;-86
2021/12/26 07:00:32;;;;;;;6.60;2.63;;;-4.00;76.90;;;;;;5070575;28;20040;-86
2021/12/26 07:02:58;;;;;;;5.68;2.45;;;-4.00;76.60;;;;;;5069096;28;20036;-86
2021/12/26 07:05:24;;;;;;;6.85;2.80;;;-4.00;76.80;;;;;;5069609;28;20047;-86
2021/12/26 07:07:50;;;;;;;4.88;2.50;;;-4.10;76.80;;;;;;5069695;28;20028;-86
2021/12/26 07:10:17;;;;;;;5.15;2.42;;;-4.10;77.00;;;;;;5070284;28;20043;-86
2021/12/26 07:12:44;;;;;;;6.65;2.58;;;-4.10;77.40;;;;;;5085295;28;20032;-86
2021/12/26 07:15:11;;;;;;;6.07;2.50;;;-4.10;77.10;;;;;;5103607;28;20047;-86
2021/12/26 07:17:37;;;;;;;5.57;2.83;;;-4.10;77.50;;;;;;5085894;28;20040;-86
2021/12/26 07:20:04;;;;;;;4.50;2.50;;;-4.00;77.50;;;;;;5103399;28;20040;-86
2021/12/26 07:22:30;;;;;;;5.65;2.83;;;-4.00;76.90;;;;;;5082755;28;20048;-86
2021/12/26 07:24:55;;;;;;;7.35;2.67;;;-4.00;77.50;;;;;;5069107;28;20086;-87
2021/12/26 07:27:22;;;;;;;6.75;2.90;;;-4.00;77.30;;;;;;5068638;28;20089;-86
2021/12/26 07:29:48;;;;;;;6.78;2.88;;;-4.00;77.30;;;;;;5068205;28;20032;-87
2021/12/26 07:32:14;;;;;;;4.65;2.50;;;-4.00;77.30;;;;;;5069267;28;20040;-86
2021/12/26 07:34:40;;;;;;;4.78;2.90;;;-4.00;77.40;;;;;;5066069;28;20042;-87
2021/12/26 07:37:07;;;;;;;5.90;3.10;;;-4.00;76.80;;;;;;5073708;28;20523;-87
2021/12/26 07:39:33;;;;;;;5.65;3.30;;;-4.10;76.50;;;;;;5071532;28;20031;-85
2021/12/26 07:41:59;;;;;;;9.55;3.05;;;-4.10;76.50;;;;;;5090573;28;20546;-86
2021/12/26 07:44:24;;;;;;;8.95;4.20;;;-4.20;76.50;;;;;;5071199;28;20146;-85
2021/12/26 07:46:50;;;;;;;8.77;3.58;;;-4.20;77.50;;;;;;5086595;28;20127;-85
2021/12/26 07:49:16;;;;;;;6.07;3.10;;;-4.20;76.80;;;;;;5088575;28;20028;-85
2021/12/26 07:51:44;;;;;;;10.95;3.28;;;-4.20;76.90;;;;;;5073720;28;20068;-86
2021/12/26 07:54:12;;;;;;;7.82;2.90;;;-4.20;76.60;;;;;;5072322;28;20040;-86
2021/12/26 07:56:38;;;;;;;9.88;3.53;;;-4.10;76.90;;;;;;5089853;28;20098;-86
2021/12/26 07:59:04;;;;;;;8.60;3.63;;;-4.10;76.80;;;;;;5099404;28;20494;-86
2021/12/26 08:01:30;;;;;;;6.88;3.13;;;-4.10;76.80;;;;;;5073020;28;20492;-86
2021/12/26 08:03:57;;;;;;;8.18;4.25;;;-4.00;76.70;;;;;;5072796;28;20040;-88
2021/12/26 08:06:23;;;;;;;5.95;2.80;;;-4.00;76.60;;;;;;5072265;28;20039;-89
2021/12/26 08:08:49;;;;;;;9.68;4.45;;;-4.00;76.70;;;;;;5074171;28;20028;-90
2021/12/26 08:11:15;;;;;;;7.70;3.67;;;-3.90;76.60;;;;;;5099572;28;20040;-84
2021/12/26 08:13:42;;;;;;;7.57;3.55;;;-3.90;76.70;;;;;;5066907;28;20036;-86
2021/12/26 08:16:08;;;;;;;7.25;3.45;;;-3.90;76.70;;;;;;5074569;28;20044;-86
2021/12/26 08:18:34;;;;;;;6.97;3.08;;;-3.80;76.60;;;;;;5069505;28;20048;-86
2021/12/26 08:21:01;;;;;;;7.55;4.03;;;-3.80;76.30;;;;;;5069706;28;20193;-86
2021/12/26 08:23:27;;;;;;;8.35;3.80;;;-3.70;76.30;;;;;;5067018;28;20048;-86
2021/12/26 08:25:54;;;;;;;9.43;3.75;;;-3.80;76.20;;;;;;5076281;28;20032;-86
2021/12/26 08:28:20;;;;;;;6.63;3.60;;;-3.70;76.20;;;;;;5098899;28;20062;-84
2021/12/26 08:30:46;;;;;;;8.05;3.90;;;-3.70;76.20;;;;;;5070331;28;20067;-84
2021/12/26 08:33:12;;;;;;;7.45;3.55;;;-3.70;76.10;;;;;;5106244;28;20036;-84
2021/12/26 08:35:41;;;;;;;6.85;3.08;;;-3.70;75.60;;;;;;5065826;28;20025;-83
2021/12/26 08:38:07;;;;;;;5.13;3.10;;;-3.70;75.20;;;;;;5068917;28;20036;-85
2021/12/26 08:40:32;;;;;;;8.18;3.35;;;-3.70;75.40;;;;;;5065173;28;20101;-85
2021/12/26 08:42:58;;;;;;;6.57;3.47;;;-3.70;75.10;;;;;;5081390;28;20043;-86
2021/12/26 08:45:25;;;;;;;6.80;3.13;;;-3.60;75.50;;;;;;5066368;28;20093;-85
2021/12/26 08:47:52;;;;;;;6.22;3.35;;;-3.70;75.20;;;;;;5085026;28;20485;-85
2021/12/26 08:50:18;;;;;;;5.45;3.28;;;-3.60;75.20;;;;;;5067736;28;20020;-85
2021/12/26 08:52:44;;;;;;;5.97;3.22;;;-3.60;74.70;;;;;;5076004;28;20116;-85
2021/12/26 08:55:10;;;;;;;8.20;3.80;;;-3.60;75.00;;;;;;5064698;28;20761;-85
2021/12/26 08:57:35;;;;;;;8.93;4.68;;;-3.60;75.00;;;;;;5083118;28;20051;-85
2021/12/26 09:00:06;;;;;;;6.43;2.80;;;-3.50;75.10;;;;;;5065797;28;20047;-86
2021/12/26 09:02:31;;;;;;;5.70;2.90;;;-3.50;74.60;;;;;;5098948;28;20032;-86
2021/12/26 09:04:57;;;;;;;7.90;3.55;;;-3.50;74.50;;;;;;5066142;28;20516;-85
2021/12/26 09:07:22;;;;;;;6.57;3.08;;;-3.40;74.10;;;;;;5099929;28;20459;-86
2021/12/26 09:09:48;;;;;;;6.93;3.13;;;-3.40;74.20;;;;;;5067390;28;20052;-86
2021/12/26 09:12:14;;;;;;;7.45;3.33;;;-3.40;74.40;;;;;;5079857;28;20039;-85
2021/12/26 09:14:40;;;;;;;8.18;3.50;;;-3.30;74.40;;;;;;5068555;28;20028;-86
2021/12/26 09:17:07;;;;;;;7.53;3.70;;;-3.30;74.90;;;;;;5065016;28;20512;-85
2021/12/26 09:19:34;;;;;;;7.15;3.80;;;-3.30;74.10;;;;;;5083773;28;20481;-86
2021/12/26 09:22:03;;;;;;;6.25;3.40;;;-3.30;74.40;;;;;;5068962;28;20122;-86
2021/12/26 09:24:29;;;;;;;8.20;3.40;;;-3.20;74.60;;;;;;5088019;28;20379;-89
2021/12/26 09:26:56;;;;;;;6.88;3.17;;;-3.20;74.90;;;;;;5070965;28;20055;-86
2021/12/26 09:29:22;;;;;;;6.32;3.38;;;-3.20;74.60;;;;;;5068688;28;20081;-86
2021/12/26 09:31:48;;;;;;;6.78;3.30;;;-3.20;74.50;;;;;;5070604;28;20028;-87
2021/12/26 09:34:15;;;;;;;6.80;3.47;;;-3.10;74.70;;;;;;5086424;28;20083;-87
2021/12/26 09:36:41;;;;;;;7.00;3.70;;;-3.10;74.70;;;;;;5064566;28;20197;-87
2021/12/26 09:39:06;;;;;;;7.20;3.78;;;-3.00;74.70;;;;;;5109816;27;20535;-87
2021/12/26 09:41:32;;;;;;;6.18;3.75;;;-3.00;74.70;;;;;;5091257;28;20119;-87
2021/12/26 09:43:59;;;;;;;7.10;3.38;;;-3.00;74.70;;;;;;5075702;28;20084;-87
2021/12/26 09:46:31;;;;;;;5.78;3.40;;;-2.90;74.50;;;;;;5090312;28;20066;-87
2021/12/26 09:48:57;;;;;;;6.60;3.50;;;-2.90;74.60;;;;;;5067557;28;20036;-87
2021/12/26 09:51:23;;;;;;;7.47;3.80;;;-2.90;74.50;;;;;;5085582;28;20055;-88
2021/12/26 09:53:49;;;;;;;7.10;3.40;;;-2.90;75.00;;;;;;5068962;28;20064;-87
2021/12/26 09:56:15;;;;;;;7.90;3.33;;;-2.80;74.90;;;;;;5068819;28;20476;-87
2021/12/26 09:58:57;;;;;;;5.55;3.08;;;-2.80;74.60;;;;;;5068955;28;20044;-86
2021/12/26 10:01:27;;;;;;;6.53;3.53;;;-2.70;74.90;;;;;;5078005;28;20110;-88
2021/12/26 10:03:53;;;;;;;6.90;3.42;;;-2.70;74.90;;;;;;5086221;28;20501;-87
2021/12/26 10:06:19;;;;;;;6.20;3.42;;;-2.70;74.70;;;;;;5068811;28;20090;-88
2021/12/26 10:08:57;;;;;;;5.60;3.45;;;-2.70;74.80;;;;;;5075021;28;20073;-87
2021/12/26 10:11:29;;;;;;;5.07;3.15;;;-2.70;74.80;;;;;;5072317;28;20060;-87
2021/12/26 10:13:58;;;;;;;5.93;3.45;;;-2.60;75.00;;;;;;5071045;28;20174;-88
2021/12/26 10:16:30;;;;;;;10.40;3.60;;;-2.60;75.30;;;;;;5072804;28;20040;-88
2021/12/26 10:18:57;;;;;;;5.70;3.58;;;-2.50;75.70;;;;;;5082049;28;20118;-88
2021/12/26 10:21:23;;;;;;;7.10;3.70;;;-2.50;76.20;;;;;;5106099;28;20118;-88
2021/12/26 10:23:50;;;;;;;8.10;3.97;;;-2.40;75.80;;;;;;5104077;28;20048;-88
2021/12/26 10:26:21;;;;;;;6.88;3.63;;;-2.40;75.80;;;;;;5070484;28;20126;-88
2021/12/26 10:29:20;;;;;;;5.70;3.20;;;-2.40;75.70;;;;;;5075559;28;20032;-88
2021/12/26 10:32:05;;;;;;;6.70;3.33;;;-2.30;75.60;;;;;;5086915;28;20043;-88
2021/12/26 10:34:42;;;;;;;5.20;3.60;;;-2.30;75.70;;;;;;5105242;28;20097;-88
2021/12/26 10:37:15;;;;;;;7.40;3.22;;;-2.30;76.00;;;;;;5072514;28;20044;-87
2021/12/26 10:39:47;;;;;;;6.88;3.63;;;-2.20;76.30;;;;;;5069980;28;20063;-88
2021/12/26 10:42:19;;;;;;;8.38;3.97;;;-2.20;76.20;;;;;;5069017;28;20047;-88
2021/12/26 10:44:54;;;;;;;7.22;3.90;;;-2.10;76.30;;;;;;5066104;28;20036;-87
2021/12/26 10:47:24;;;;;;;9.50;4.28;;;-2.10;76.50;;;;;;5072019;28;20043;-86
2021/12/26 10:49:59;;;;;;;7.30;3.72;;;-2.10;76.50;;;;;;5103080;28;20116;-87
2021/12/26 10:52:30;;;;;;;9.23;4.20;;;-2.10;76.80;;;;;;5085455;28;20044;-87
2021/12/26 10:55:02;;;;;;;7.38;4.15;;;-2.00;76.80;;;;;;5104716;28;20409;-87
2021/12/26 10:57:33;;;;;;;8.13;3.40;;;-2.00;77.00;;;;;;5088786;28;20051;-88
2021/12/26 11:00:08;;;;;;;5.88;3.28;;;-1.90;77.00;;;;;;5095151;28;20097;-88
2021/12/26 11:02:35;;;;;;;10.75;4.10;;;-1.90;77.30;;;;;;5088902;28;20036;-88
2021/12/26 11:05:07;;;;;;;6.38;3.38;;;-1.80;77.10;;;;;;5081173;28;20126;-88
2021/12/26 11:08:00;;;;;;;9.23;3.85;;;-1.80;77.00;;;;;;5086032;28;20042;-85
2021/12/26 11:10:39;;;;;;;6.72;3.58;;;-1.80;76.80;;;;;;5082556;28;20048;-89
2021/12/26 11:13:07;;;;;;;7.95;4.55;;;-1.70;77.00;;;;;;5093949;28;20040;-87
2021/12/26 11:15:37;;;;;;;6.20;3.78;;;-1.70;77.40;;;;;;5081222;28;20039;-87
2021/12/26 11:18:06;;;;;;;7.03;3.75;;;-1.70;77.80;;;;;;5087354;28;20521;-87
2021/12/26 11:20:41;;;;;;;9.35;3.70;;;-1.70;78.00;;;;;;5082061;28;20040;-88
2021/12/26 11:23:10;;;;;;;7.95;3.80;;;-1.60;78.40;;;;;;5081992;28;20105;-88
2021/12/26 11:25:41;;;;;;;8.32;3.58;;;-1.60;78.70;;;;;;5081984;28;20035;-87
2021/12/26 11:28:07;;;;;;;6.00;3.70;;;-1.50;78.80;;;;;;5071552;28;20131;-87
2021/12/26 11:30:33;;;;;;;7.35;3.60;;;-1.50;78.60;;;;;;5063511;28;20043;-89
2021/12/26 11:32:59;;;;;;;7.18;3.63;;;-1.50;78.80;;;;;;5074047;28;20036;-88
2021/12/26 11:35:31;;;;;;;6.65;4.10;;;-1.50;78.90;;;;;;5073186;28;20050;-88
2021/12/26 11:37:58;;;;;;;7.07;4.00;;;-1.50;79.00;;;;;;5072690;28;20032;-88
2021/12/26 11:40:24;;;;;;;7.95;3.63;;;-1.40;78.90;;;;;;5069017;28;20094;-87
2021/12/26 11:43:32;;;;;;;7.38;4.00;;;-1.40;79.00;;;;;;5085196;28;20036;-86
2021/12/26 11:46:24;;;;;;;;;;;-1.40;79.30;;;;;;5090618;28;20042;-87
2021/12/26 11:49:33;;;;;;;7.07;3.53;;;-1.40;79.30;;;;;;5091192;28;19922;-86
2021/12/26 11:52:23;;;;;;;8.77;5.78;;;-1.30;79.80;;;;;;5085048;28;20131;-90
2021/12/26 11:54:54;;;;;;;7.60;4.07;;;-1.30;80.30;;;;;;5097733;27;20101;-88
2021/12/26 11:57:44;;;;;;;8.65;4.63;;;-1.30;80.60;;;;;;5073894;28;20043;-88
2021/12/26 12:00:12;;;;;;;9.27;3.92;;;-1.20;80.80;;;;;;5085142;28;20131;-86
2021/12/26 12:02:45;;;;;;;9.30;4.20;;;-1.20;81.00;;;;;;5102026;27;20044;-86
2021/12/26 12:05:37;;;;;;;8.00;4.38;;;-1.20;80.80;;;;;;5082486;28;20477;-86
2021/12/26 12:08:06;;;;;;;7.78;3.67;;;-1.20;80.90;;;;;;5066581;28;20040;-86
2021/12/26 12:10:35;;;;;;;8.43;4.35;;;-1.20;80.80;;;;;;5080211;28;20039;-86
2021/12/26 12:13:01;;;;;;;7.03;3.97;;;-1.10;81.10;;;;;;5065848;28;20456;-85
2021/12/26 12:15:45;;;;;;;8.10;4.32;;;-1.10;80.90;;;;;;5066189;28;20094;-87
2021/12/26 12:18:18;;;;;;;8.32;4.03;;;-1.10;80.90;;;;;;5079624;28;20039;-87
2021/12/26 12:20:44;;;;;;;6.75;3.80;;;-1.00;81.00;;;;;;5079057;28;20576;-86
2021/12/26 12:23:15;;;;;;;9.10;4.60;;;-1.00;80.90;;;;;;5065831;28;20059;-86
2021/12/26 12:25:49;;;;;;;7.85;4.40;;;-1.00;81.20;;;;;;5066376;28;20043;-86
2021/12/26 12:28:31;;;;;;;9.73;4.72;;;-1.00;81.50;;;;;;5080431;28;20048;-85
2021/12/26 12:31:09;;;;;;;7.90;4.05;;;-1.00;81.90;;;;;;5077504;28;20029;-86
2021/12/26 12:33:37;;;;;;;8.38;4.00;;;-1.00;82.20;;;;;;5084569;28;20050;-86
2021/12/26 12:36:11;;;;;;;6.88;4.13;;;-1.00;82.60;;;;;;5067939;28;20131;-86
2021/12/26 12:38:47;;;;;;;5.30;3.60;;;-0.90;82.30;;;;;;5076217;28;20051;-89
2021/12/26 12:41:28;;;;;;;6.38;3.72;;;-0.90;82.50;;;;;;5065662;28;20501;-86
2021/12/26 12:43:59;;;;;;;7.20;4.03;;;-0.90;82.50;;;;;;5077947;28;20129;-86
2021/12/26 12:46:25;;;;;;;7.57;3.90;;;-0.90;83.10;;;;;;5083231;28;20357;-87
2021/12/26 12:49:00;;;;;;;7.75;4.10;;;-0.90;83.30;;;;;;5069516;28;20044;-86
2021/12/26 12:51:30;;;;;;;7.10;3.57;;;-0.80;83.50;;;;;;5062104;28;20155;-88
2021/12/26 12:54:30;;;;;;;9.00;4.38;;;-0.80;83.30;;;;;;5075626;28;20688;-87
2021/12/26 12:56:57;;;;;;;7.70;4.07;;;-0.80;83.10;;;;;;5061220;28;20044;-87
2021/12/26 12:59:34;;;;;;;8.32;4.32;;;-0.80;83.10;;;;;;5076473;28;20123;-88
2021/12/26 13:02:24;;;;;;;8.93;4.55;;;-0.80;83.00;;;;;;5067802;28;20048;-89